Time;durP1;ratioP1;P1;durP2;ratioP2;P2;SDS_P1;SDS_P2;PMS_P1;PMS_P2;Temp;Humidity;BMP_temperature;BMP_pressure;BME280_temperature;BME280_humidity;BME280_pressure;Samples;Min_cycle;Max_cycle;Signal;HPM_P1;HPM_P2
2023/07/14 00:05:39;;;;;;;5.25;3.28;;;;;;;17.06;61.59;101357.25;15554891;28;20040;-54
2023/07/14 00:13:15;;;;;;;5.40;3.20;;;;;;;16.99;61.78;101357.38;15554479;28;20050;-56
2023/07/14 00:20:48;;;;;;;6.75;3.63;;;;;;;16.74;61.92;101356.81;15560862;28;20057;-58
2023/07/14 00:28:23;;;;;;;5.57;3.60;;;;;;;16.65;61.69;101353.63;15554098;28;20058;-56
2023/07/14 00:35:55;;;;;;;5.50;3.17;;;;;;;16.72;61.29;101365.19;15554452;28;20104;-56
2023/07/14 00:43:31;;;;;;;6.38;3.50;;;;;;;16.62;61.90;101351.34;15534911;28;20579;-57
2023/07/14 00:51:11;;;;;;;5.00;3.30;;;;;;;16.55;62.12;101358.75;15539916;28;20529;-57
2023/07/14 00:58:49;;;;;;;7.25;3.53;;;;;;;16.51;61.83;101366.56;15553475;28;20077;-57
2023/07/14 01:06:26;;;;;;;5.60;3.58;;;;;;;16.22;62.98;101359.31;15554698;28;20502;-52
2023/07/14 01:14:03;;;;;;;7.40;3.75;;;;;;;16.04;63.43;101371.91;15553308;28;20422;-54
2023/07/14 01:21:38;;;;;;;6.38;4.05;;;;;;;16.24;62.45;101368.88;15536131;28;20089;-52
2023/07/14 01:29:13;;;;;;;4.50;3.80;;;;;;;15.88;63.56;101361.69;15551885;28;20042;-55
2023/07/14 01:36:49;;;;;;;5.63;4.18;;;;;;;15.78;63.69;101354.13;15519165;28;20245;-50
2023/07/14 01:44:24;;;;;;;5.72;3.95;;;;;;;15.76;63.74;101355.41;15537214;28;20513;-53
2023/07/14 01:52:02;;;;;;;6.53;4.07;;;;;;;15.65;64.11;101370.53;15560967;28;20057;-53
2023/07/14 01:59:39;;;;;;;6.93;4.15;;;;;;;15.62;64.33;101372.84;15554614;28;20514;-54
2023/07/14 02:07:15;;;;;;;8.15;3.88;;;;;;;15.72;64.23;101374.00;15560243;28;20044;-51
2023/07/14 02:14:55;;;;;;;7.13;4.43;;;;;;;15.56;65.00;101369.19;15560345;28;20042;-51
2023/07/14 02:22:31;;;;;;;6.32;4.15;;;;;;;15.58;64.78;101361.69;15559127;28;20095;-52
2023/07/14 02:30:13;;;;;;;8.98;4.68;;;;;;;15.63;64.89;101385.34;15540085;28;20152;-55
2023/07/14 02:38:00;;;;;;;7.72;5.10;;;;;;;15.54;64.06;101398.34;15542594;28;20068;-54
2023/07/14 02:45:36;;;;;;;7.13;4.53;;;;;;;15.36;64.78;101401.06;15541201;28;20396;-53
2023/07/14 02:53:10;;;;;;;8.23;5.10;;;;;;;15.22;65.28;101398.50;15541602;28;20081;-55
2023/07/14 03:00:45;;;;;;;5.78;4.55;;;;;;;15.25;65.61;101399.94;15540956;28;20045;-53
2023/07/14 03:08:18;;;;;;;7.95;4.82;;;;;;;15.24;64.96;101409.09;15556733;28;20100;-54
2023/07/14 03:15:53;;;;;;;6.15;5.40;;;;;;;15.17;64.21;101419.16;15557413;28;20033;-54
2023/07/14 03:23:26;;;;;;;8.60;5.20;;;;;;;14.61;66.38;101426.34;15557282;28;20045;-55
2023/07/14 03:31:03;;;;;;;6.45;5.50;;;;;;;15.14;65.29;101415.03;15555567;28;20057;-50
2023/07/14 03:38:40;;;;;;;6.85;5.70;;;;;;;14.83;65.88;101423.22;15540052;28;20046;-51
2023/07/14 03:46:15;;;;;;;7.53;5.88;;;;;;;15.12;64.99;101419.84;15556208;28;20037;-53
2023/07/14 03:53:48;;;;;;;7.63;6.35;;;;;;;15.16;64.55;101410.22;15538278;28;20141;-50
2023/07/14 04:01:25;;;;;;;13.00;6.50;;;;;;;14.82;66.34;101410.75;15555563;28;20038;-52
2023/07/14 04:09:00;;;;;;;8.75;6.70;;;;;;;15.18;64.89;101418.13;15554639;28;20050;-52
2023/07/14 04:16:39;;;;;;;10.88;6.57;;;;;;;15.28;65.31;101419.22;15555495;28;20206;-52
2023/07/14 04:24:11;;;;;;;11.18;6.25;;;;;;;14.75;66.29;101421.66;15555206;28;20054;-54
2023/07/14 04:31:46;;;;;;;9.98;6.50;;;;;;;14.84;66.74;101430.31;15554020;28;20038;-56
2023/07/14 04:39:23;;;;;;;13.15;6.13;;;;;;;15.27;66.02;101439.22;15553885;28;20092;-54
2023/07/14 04:46:58;;;;;;;9.57;6.20;;;;;;;15.60;65.38;101438.03;15553773;28;20590;-51
2023/07/14 04:54:32;;;;;;;10.07;5.85;;;;;;;15.66;65.70;101439.84;15554416;28;20129;-51
2023/07/14 05:02:07;;;;;;;11.80;5.88;;;;;;;15.83;65.40;101445.47;15555033;28;20050;-53
2023/07/14 05:09:40;;;;;;;8.65;5.15;;;;;;;15.76;65.92;101451.00;15552039;28;20511;-56
2023/07/14 05:17:14;;;;;;;13.18;5.65;;;;;;;16.48;64.03;101450.22;15553181;28;20440;-55
2023/07/14 05:24:47;;;;;;;15.48;5.63;;;;;;;16.61;64.21;101457.31;15562853;28;20061;-56
2023/07/14 05:32:22;;;;;;;;;;;;;;;16.73;63.51;101445.44;15546442;28;20100;-56
2023/07/14 05:39:54;;;;;;;7.32;4.80;;;;;;;17.61;62.21;101459.91;15563324;28;20136;-54
2023/07/14 05:47:29;;;;;;;9.05;4.43;;;;;;;17.66;61.15;101454.59;15563385;28;20049;-52
2023/07/14 05:55:03;;;;;;;11.77;4.88;;;;;;;17.89;61.16;101451.03;15529004;28;20093;-54
2023/07/14 06:02:38;;;;;;;8.07;4.43;;;;;;;18.37;59.28;101466.03;15561804;28;20092;-56
2023/07/14 06:10:13;;;;;;;7.70;3.90;;;;;;;17.97;60.21;101457.97;15561293;28;20112;-53
2023/07/14 06:17:48;;;;;;;7.35;3.63;;;;;;;18.16;60.08;101454.00;15556693;28;20121;-55
2023/07/14 06:25:21;;;;;;;9.73;4.20;;;;;;;19.48;58.01;101449.84;15517531;28;20052;-58
2023/07/14 06:32:55;;;;;;;;;;;;;;;19.47;56.27;101447.41;15545315;28;20081;-57
2023/07/14 06:40:27;;;;;;;9.77;3.67;;;;;;;20.18;54.37;101441.97;15549802;28;20283;-55
2023/07/14 06:48:02;;;;;;;7.07;2.90;;;;;;;20.42;53.97;101443.31;15556486;28;20096;-58
2023/07/14 06:55:37;;;;;;;5.40;2.67;;;;;;;20.96;52.65;101447.88;15533975;28;20137;-56
2023/07/14 07:03:11;;;;;;;7.13;2.88;;;;;;;21.26;51.69;101453.50;15536872;28;20038;-55
2023/07/14 07:10:45;;;;;;;6.85;2.70;;;;;;;21.76;48.40;101448.59;15556214;28;20458;-55
2023/07/14 07:18:26;;;;;;;6.93;2.90;;;;;;;20.84;50.68;101450.78;15551115;28;20046;-54
2023/07/14 07:25:59;;;;;;;5.35;2.53;;;;;;;21.39;49.78;101447.63;15542099;28;20691;-54
2023/07/14 07:33:33;;;;;;;7.68;2.20;;;;;;;21.58;48.14;101434.31;15541161;28;20050;-54
2023/07/14 07:41:07;;;;;;;3.60;2.10;;;;;;;21.84;47.74;101445.34;15545089;28;20054;-55
2023/07/14 07:48:44;;;;;;;6.75;3.30;;;;;;;22.74;46.56;101425.78;15556923;28;20473;-56
2023/07/14 07:56:17;;;;;;;5.78;2.00;;;;;;;23.25;44.46;101412.03;15538657;28;20046;-56
2023/07/14 08:03:52;;;;;;;5.25;1.63;;;;;;;22.64;45.13;101418.41;15532220;28;20578;-58
2023/07/14 08:11:29;;;;;;;8.95;2.20;;;;;;;23.95;43.33;101412.84;15528102;28;20081;-54
2023/07/14 08:19:04;;;;;;;4.90;2.05;;;;;;;23.62;45.12;101409.69;15553285;28;20125;-57
2023/07/14 08:26:38;;;;;;;3.47;1.60;;;;;;;23.43;44.85;101403.22;15553752;28;20046;-59
2023/07/14 08:34:13;;;;;;;2.90;1.40;;;;;;;24.10;41.93;101399.03;15546447;28;20159;-58
2023/07/14 08:41:46;;;;;;;4.22;1.40;;;;;;;23.99;40.52;101399.38;15552492;28;20049;-58
2023/07/14 08:49:24;;;;;;;4.10;1.70;;;;;;;24.21;41.35;101393.50;15548205;28;20039;-55
2023/07/14 08:56:58;;;;;;;6.10;1.55;;;;;;;24.59;40.11;101400.06;15557790;28;20509;-56
2023/07/14 09:04:37;;;;;;;2.50;1.33;;;;;;;25.04;39.43;101384.22;15547141;28;20069;-59
2023/07/14 09:12:23;;;;;;;2.97;1.40;;;;;;;25.42;39.72;101379.69;15540507;28;20073;-55
2023/07/14 09:20:24;;;;;;;5.13;1.55;;;;;;;25.20;38.17;101380.22;15522198;28;20085;-55
2023/07/14 09:28:00;;;;;;;4.07;1.35;;;;;;;24.87;38.00;101374.53;15563295;28;20056;-57
2023/07/14 09:35:36;;;;;;;6.72;1.40;;;;;;;26.16;33.75;101358.00;15559423;28;20410;-60
2023/07/14 09:43:11;;;;;;;3.05;1.38;;;;;;;26.33;34.76;101358.25;15560165;28;20042;-58
2023/07/14 09:50:54;;;;;;;6.70;1.55;;;;;;;26.28;33.68;101357.53;15560780;28;20050;-59
2023/07/14 09:58:30;;;;;;;4.10;1.40;;;;;;;25.81;35.11;101346.44;15557829;28;20053;-58
2023/07/14 10:06:16;;;;;;;3.38;1.40;;;;;;;27.77;32.30;101331.50;15562331;28;20041;-57
2023/07/14 10:13:54;;;;;;;3.83;1.60;;;;;;;27.24;32.22;101329.34;15555440;28;20099;-55
2023/07/14 10:21:31;;;;;;;3.05;1.20;;;;;;;28.09;30.00;101322.97;15538523;28;20136;-54
2023/07/14 10:29:05;;;;;;;4.63;1.40;;;;;;;27.75;36.04;101319.97;15525883;28;20049;-54
2023/07/14 10:36:40;;;;;;;4.32;1.70;;;;;;;27.26;33.59;101305.84;15560049;28;20046;-57
2023/07/14 10:44:20;;;;;;;4.88;1.95;;;;;;;26.68;33.46;101300.97;15555173;28;20049;-55
2023/07/14 10:51:59;;;;;;;5.30;1.60;;;;;;;28.31;34.94;101293.72;15526733;28;20129;-52
2023/07/14 10:59:39;;;;;;;3.40;1.67;;;;;;;29.06;31.59;101273.44;15547922;28;20462;-54
2023/07/14 11:07:17;;;;;;;2.45;1.73;;;;;;;29.23;29.03;101278.16;15555529;28;20046;-58
2023/07/14 11:14:57;;;;;;;3.92;2.00;;;;;;;28.57;30.18;101266.25;15536966;28;20451;-58
2023/07/14 11:22:53;;;;;;;3.30;1.80;;;;;;;29.17;29.85;101258.16;15534661;28;20050;-58
2023/07/14 11:30:30;;;;;;;4.47;1.90;;;;;;;28.92;31.28;101251.41;15556430;28;20054;-59
2023/07/14 11:38:17;;;;;;;2.67;1.80;;;;;;;29.71;30.33;101238.50;15552154;28;20049;-59
2023/07/14 11:45:58;;;;;;;5.72;2.03;;;;;;;28.45;29.29;101242.00;15535393;28;20104;-58
2023/07/14 11:53:35;;;;;;;5.30;2.00;;;;;;;28.89;28.83;101223.59;15528553;28;20514;-58
2023/07/14 12:01:17;;;;;;;6.03;2.05;;;;;;;28.65;28.29;101227.63;15554513;28;20580;-55
2023/07/14 12:09:00;;;;;;;;;;;;;;;27.45;31.26;101212.78;15553703;28;20046;-56
2023/07/14 12:16:47;;;;;;;3.33;2.08;;;;;;;29.67;29.29;101209.88;15526601;28;19922;-58
2023/07/14 12:24:29;;;;;;;5.57;2.40;;;;;;;29.78;27.47;101202.03;15554277;28;20121;-57
2023/07/14 12:32:02;;;;;;;9.20;2.67;;;;;;;28.66;28.09;101204.38;15553293;28;20049;-54
2023/07/14 12:39:45;;;;;;;5.68;2.60;;;;;;;28.19;29.63;101178.34;15536859;28;20145;-59
2023/07/14 12:47:20;;;;;;;3.70;2.30;;;;;;;28.71;33.06;101173.84;15554931;28;20449;-58
2023/07/14 12:54:59;;;;;;;6.18;2.40;;;;;;;28.44;29.30;101171.31;15553806;28;20038;-59
2023/07/14 13:02:32;;;;;;;3.67;2.22;;;;;;;27.89;28.39;101153.22;15532654;28;20125;-58
2023/07/14 13:10:17;;;;;;;4.78;2.30;;;;;;;28.70;28.25;101152.06;15544532;28;20046;-61
2023/07/14 13:17:50;;;;;;;6.13;2.40;;;;;;;28.87;30.36;101134.69;15552325;28;20088;-61
2023/07/14 13:25:27;;;;;;;5.53;2.70;;;;;;;29.80;28.47;101114.78;15552746;28;20049;-60
2023/07/14 13:33:02;;;;;;;4.50;2.58;;;;;;;27.90;27.96;101107.16;15569300;28;20096;-60
2023/07/14 13:40:39;;;;;;;5.43;2.65;;;;;;;27.73;29.45;101129.13;15556254;28;20426;-58
2023/07/14 13:48:24;;;;;;;4.38;2.70;;;;;;;26.85;30.89;101122.09;15563050;28;20052;-60
2023/07/14 13:55:58;;;;;;;4.95;2.45;;;;;;;28.66;28.19;101102.16;15561698;28;20473;-60
2023/07/14 14:03:31;;;;;;;5.35;2.55;;;;;;;28.70;28.72;101086.56;15562546;28;20037;-61
2023/07/14 14:11:06;;;;;;;5.32;2.20;;;;;;;27.13;29.34;101088.97;15544516;28;20099;-59
2023/07/14 14:18:42;;;;;;;3.88;2.30;;;;;;;28.40;27.98;101079.25;15564558;28;20046;-56
2023/07/14 14:26:16;;;;;;;4.32;2.28;;;;;;;28.07;28.73;101064.97;15560847;28;20057;-55
2023/07/14 14:33:49;;;;;;;5.78;2.60;;;;;;;28.17;29.36;101060.00;15544836;28;20265;-58
2023/07/14 14:41:28;;;;;;;3.78;2.10;;;;;;;27.69;27.85;101051.66;15559368;28;20050;-59
2023/07/14 14:49:01;;;;;;;5.63;2.40;;;;;;;28.58;27.60;101049.66;15560034;28;20423;-57
2023/07/14 14:56:40;;;;;;;3.58;2.13;;;;;;;27.03;29.34;101034.91;15559770;28;20439;-52
2023/07/14 15:04:16;;;;;;;4.22;2.42;;;;;;;27.76;28.21;101023.69;15558358;28;20049;-56
2023/07/14 15:11:53;;;;;;;3.97;2.40;;;;;;;27.04;28.99;101014.47;15558783;28;20049;-52
2023/07/14 15:19:30;;;;;;;3.80;2.45;;;;;;;27.33;28.47;101016.00;15558558;28;20050;-55
2023/07/14 15:27:06;;;;;;;7.68;2.60;;;;;;;27.15;28.11;101001.31;15558185;28;20048;-53
2023/07/14 15:34:45;;;;;;;4.10;2.10;;;;;;;27.24;28.07;100999.41;15557061;28;20046;-55
2023/07/14 15:42:19;;;;;;;4.20;2.35;;;;;;;27.07;28.13;100999.28;15539057;28;20053;-54
2023/07/14 15:49:52;;;;;;;4.88;2.20;;;;;;;27.61;28.83;100984.34;15541903;28;20049;-59
2023/07/14 15:57:26;;;;;;;3.72;2.28;;;;;;;27.78;28.06;100985.53;15553066;28;20048;-57
2023/07/14 16:04:59;;;;;;;4.20;2.10;;;;;;;27.62;28.50;100969.41;15547610;28;20041;-52
2023/07/14 16:12:34;;;;;;;5.35;2.40;;;;;;;27.70;29.42;100965.06;15517487;28;20037;-56
2023/07/14 16:20:10;;;;;;;3.72;2.03;;;;;;;27.75;27.94;100967.69;15536531;28;20137;-58
2023/07/14 16:27:45;;;;;;;6.75;2.58;;;;;;;27.68;28.04;100959.84;15545863;28;20042;-57
2023/07/14 16:35:22;;;;;;;4.80;2.30;;;;;;;27.82;28.51;100959.75;15552572;28;20141;-58
2023/07/14 16:42:59;;;;;;;3.67;2.40;;;;;;;27.49;29.88;100944.72;15542819;28;20100;-56
2023/07/14 16:50:32;;;;;;;3.88;2.10;;;;;;;27.60;29.38;100944.06;15531442;28;20137;-54
2023/07/14 16:58:17;;;;;;;5.03;2.25;;;;;;;27.69;28.77;100933.06;15546155;28;20061;-54
2023/07/14 17:05:51;;;;;;;8.48;2.70;;;;;;;27.29;29.66;100924.03;15552324;28;20400;-57
2023/07/14 17:13:27;;;;;;;6.47;2.40;;;;;;;26.81;30.46;100913.72;15553504;28;20100;-53
2023/07/14 17:21:02;;;;;;;5.18;2.17;;;;;;;26.78;30.41;100906.91;15558389;28;20128;-54
2023/07/14 17:28:37;;;;;;;5.72;2.58;;;;;;;26.47;31.10;100906.03;15559696;28;20042;-56
2023/07/14 17:36:11;;;;;;;6.07;2.10;;;;;;;26.78;31.94;100898.66;15557508;28;20589;-55
2023/07/14 17:43:45;;;;;;;4.70;2.20;;;;;;;26.77;30.81;100896.22;15552880;28;20112;-55
2023/07/14 17:51:19;;;;;;;5.50;2.58;;;;;;;26.30;30.75;100887.44;15496190;28;20051;-54
2023/07/14 17:58:53;;;;;;;7.90;2.30;;;;;;;26.57;30.75;100894.78;15484472;28;20126;-52
2023/07/14 18:06:26;;;;;;;6.47;2.35;;;;;;;26.72;31.12;100891.66;15501792;28;20034;-52
2023/07/14 18:14:00;;;;;;;3.97;2.13;;;;;;;26.39;32.10;100880.03;15517704;28;20049;-56
2023/07/14 18:21:33;;;;;;;4.78;2.70;;;;;;;26.17;32.76;100884.44;15559730;28;20104;-53
2023/07/14 18:29:13;;;;;;;5.05;2.30;;;;;;;26.30;32.79;100876.41;15559132;28;20100;-59
2023/07/14 18:36:47;;;;;;;7.10;2.83;;;;;;;25.98;34.22;100875.53;15560566;28;20510;-60
2023/07/14 18:44:21;;;;;;;4.40;2.53;;;;;;;25.46;35.01;100880.50;15558915;28;20056;-60
2023/07/14 18:51:54;;;;;;;6.72;2.42;;;;;;;24.94;35.18;100877.91;15562066;28;20046;-57
2023/07/14 18:59:29;;;;;;;6.05;2.42;;;;;;;25.23;34.29;100884.25;15564030;28;20407;-59
2023/07/14 19:07:02;;;;;;;5.38;2.40;;;;;;;24.84;34.93;100869.03;15558202;28;20634;-56
2023/07/14 19:14:36;;;;;;;7.50;2.45;;;;;;;24.74;35.55;100883.78;15558214;28;20048;-54
2023/07/14 19:22:11;;;;;;;4.30;2.50;;;;;;;24.80;35.77;100898.22;15557333;28;20058;-57
2023/07/14 19:29:45;;;;;;;6.97;2.67;;;;;;;24.84;36.10;100893.75;15539607;28;20045;-58
2023/07/14 19:37:19;;;;;;;5.15;2.67;;;;;;;24.39;36.83;100894.25;15540097;28;20049;-58
2023/07/14 19:44:53;;;;;;;6.18;2.67;;;;;;;23.98;37.77;100895.94;15557091;28;20408;-58
2023/07/14 19:52:27;;;;;;;8.85;2.95;;;;;;;23.56;38.12;100901.13;15539236;28;20046;-54
2023/07/14 20:00:02;;;;;;;11.65;3.00;;;;;;;24.03;40.04;100890.38;15539095;28;20034;-50
2023/07/14 20:07:50;;;;;;;9.25;3.03;;;;;;;23.65;40.74;100910.38;15554908;28;20042;-53
2023/07/14 20:15:24;;;;;;;5.18;2.83;;;;;;;23.40;40.76;100899.66;15554963;28;20439;-51
2023/07/14 20:22:57;;;;;;;5.00;2.90;;;;;;;23.31;41.46;100895.94;15554939;28;20137;-51
2023/07/14 20:30:31;;;;;;;5.38;3.10;;;;;;;23.03;40.86;100892.16;15551363;28;20053;-52
2023/07/14 20:38:14;;;;;;;6.57;3.20;;;;;;;23.00;40.39;100888.06;15537493;28;20046;-56
2023/07/14 20:45:49;;;;;;;4.53;3.00;;;;;;;22.73;41.04;100888.59;15521440;28;20065;-55
2023/07/14 20:53:26;;;;;;;8.88;3.20;;;;;;;22.76;40.46;100892.69;15564200;28;20049;-54
2023/07/14 21:01:01;;;;;;;4.35;2.78;;;;;;;22.84;40.78;100898.31;15566299;28;20058;-53
2023/07/14 21:08:35;;;;;;;11.73;3.05;;;;;;;22.49;41.22;100876.75;15565606;28;20045;-60
2023/07/14 21:16:12;;;;;;;10.07;3.22;;;;;;;22.63;40.85;100875.81;15551473;28;20116;-58
2023/07/14 21:23:45;;;;;;;8.20;3.53;;;;;;;22.22;41.60;100875.31;15562147;28;20074;-58
2023/07/14 21:31:20;;;;;;;6.78;3.40;;;;;;;21.97;43.52;100868.09;15565042;28;20077;-57
2023/07/14 21:38:53;;;;;;;5.70;3.17;;;;;;;22.04;41.92;100865.84;15564757;28;20048;-57
2023/07/14 21:46:28;;;;;;;6.65;3.25;;;;;;;21.58;42.68;100863.38;15566986;28;20046;-59
2023/07/14 21:54:04;;;;;;;7.25;3.45;;;;;;;21.89;42.57;100855.03;15546102;28;20104;-55
2023/07/14 22:01:44;;;;;;;7.47;3.30;;;;;;;22.32;41.47;100856.09;15561425;28;20329;-55
2023/07/14 22:09:18;;;;;;;7.10;3.30;;;;;;;22.14;41.78;100845.84;15544812;28;20337;-54
2023/07/14 22:16:52;;;;;;;5.97;3.05;;;;;;;21.51;43.10;100835.56;15487695;28;20050;-57
2023/07/14 22:24:25;;;;;;;5.78;3.20;;;;;;;21.62;42.96;100837.13;15501539;28;20507;-56
2023/07/14 22:32:01;;;;;;;8.70;3.00;;;;;;;21.58;43.30;100838.78;15483588;28;20050;-55
2023/07/14 22:39:34;;;;;;;6.30;3.53;;;;;;;21.35;43.89;100836.72;15500863;28;20082;-51
2023/07/14 22:47:10;;;;;;;;;;;;;;;21.18;44.36;100833.50;15483291;28;20526;-55
2023/07/14 22:54:43;;;;;;;5.10;3.58;;;;;;;21.03;44.74;100834.34;15499921;28;20346;-56
2023/07/14 23:02:18;;;;;;;6.35;3.25;;;;;;;;;;15465207;28;20137;-51
2023/07/14 23:09:54;;;;;;;4.80;3.47;;;;;;;21.10;44.62;100829.44;15449252;23;20078;-51
2023/07/14 23:17:29;;;;;;;7.43;3.50;;;;;;;20.99;44.93;100816.91;15449379;28;20039;-44
2023/07/14 23:25:03;;;;;;;5.80;3.17;;;;;;;21.05;44.92;100815.78;15482494;28;20510;-51
2023/07/14 23:32:37;;;;;;;9.48;3.47;;;;;;;20.79;46.29;100815.84;15489547;28;20105;-45
2023/07/14 23:40:13;;;;;;;5.43;3.20;;;;;;;21.15;45.95;100810.28;15488570;28;20573;-51
2023/07/14 23:47:47;;;;;;;7.03;3.30;;;;;;;21.07;46.66;100822.59;15487215;28;20042;-52
2023/07/14 23:55:23;;;;;;;6.15;3.50;;;;;;;20.70;47.61;100811.25;15487083;28;20045;-48
